sensor_id;sensor_type;location;lat;lon;timestamp;temperature;humidity
6879;DHT22;3478;51.462;7.338;2023-03-04T00:05:00;5.00;1.00
6879;DHT22;3478;51.462;7.338;2023-03-04T00:10:03;5.10;1.00
6879;DHT22;3478;51.462;7.338;2023-03-04T00:15:06;5.10;1.00
6879;DHT22;3478;51.462;7.338;2023-03-04T00:20:11;5.10;1.00
6879;DHT22;3478;51.462;7.338;2023-03-04T00:25:13;5.20;1.00
6879;DHT22;3478;51.462;7.338;2023-03-04T00:30:15;5.20;1.00
6879;DHT22;3478;51.462;7.338;2023-03-04T00:35:18;5.10;1.00
6879;DHT22;3478;51.462;7.338;2023-03-04T00:40:20;5.20;1.00
6879;DHT22;3478;51.462;7.338;2023-03-04T00:45:22;5.20;1.00
6879;DHT22;3478;51.462;7.338;2023-03-04T00:50:25;5.20;1.00
6879;DHT22;3478;51.462;7.338;2023-03-04T00:55:27;5.20;1.00
6879;DHT22;3478;51.462;7.338;2023-03-04T01:00:29;5.30;1.00
6879;DHT22;3478;51.462;7.338;2023-03-04T01:05:32;5.30;1.00
6879;DHT22;3478;51.462;7.338;2023-03-04T01:10:35;5.20;1.00
6879;DHT22;3478;51.462;7.338;2023-03-04T01:15:37;5.20;1.00
6879;DHT22;3478;51.462;7.338;2023-03-04T01:20:40;5.20;1.00
6879;DHT22;3478;51.462;7.338;2023-03-04T01:25:42;5.20;1.00
6879;DHT22;3478;51.462;7.338;2023-03-04T01:30:44;5.20;1.00
6879;DHT22;3478;51.462;7.338;2023-03-04T01:35:47;5.20;1.00
6879;DHT22;3478;51.462;7.338;2023-03-04T01:40:49;5.20;1.00
6879;DHT22;3478;51.462;7.338;2023-03-04T01:45:52;5.30;1.00
6879;DHT22;3478;51.462;7.338;2023-03-04T01:50:56;5.30;1.00
6879;DHT22;3478;51.462;7.338;2023-03-04T01:56:01;5.40;1.00
6879;DHT22;3478;51.462;7.338;2023-03-04T02:01:05;5.30;1.00
6879;DHT22;3478;51.462;7.338;2023-03-04T02:06:08;5.30;1.00
6879;DHT22;3478;51.462;7.338;2023-03-04T02:11:10;5.30;1.00
6879;DHT22;3478;51.462;7.338;2023-03-04T02:16:12;5.30;1.00
6879;DHT22;3478;51.462;7.338;2023-03-04T02:21:19;5.20;1.00
6879;DHT22;3478;51.462;7.338;2023-03-04T02:26:26;5.30;1.00
6879;DHT22;3478;51.462;7.338;2023-03-04T02:31:31;5.30;1.00
6879;DHT22;3478;51.462;7.338;2023-03-04T02:36:34;5.30;1.00
6879;DHT22;3478;51.462;7.338;2023-03-04T02:41:38;5.30;1.00
6879;DHT22;3478;51.462;7.338;2023-03-04T02:46:40;5.20;1.00
6879;DHT22;3478;51.462;7.338;2023-03-04T02:51:41;5.30;1.00
6879;DHT22;3478;51.462;7.338;2023-03-04T02:56:45;5.30;1.00
6879;DHT22;3478;51.462;7.338;2023-03-04T03:01:48;5.30;1.00
6879;DHT22;3478;51.462;7.338;2023-03-04T03:06:49;5.30;1.00
6879;DHT22;3478;51.462;7.338;2023-03-04T03:11:52;5.30;1.00
6879;DHT22;3478;51.462;7.338;2023-03-04T03:16:54;5.30;1.00
6879;DHT22;3478;51.462;7.338;2023-03-04T03:21:56;5.30;1.00
6879;DHT22;3478;51.462;7.338;2023-03-04T03:26:59;5.20;1.00
6879;DHT22;3478;51.462;7.338;2023-03-04T03:32:01;5.30;1.00
6879;DHT22;3478;51.462;7.338;2023-03-04T03:37:03;5.40;1.00
6879;DHT22;3478;51.462;7.338;2023-03-04T03:42:06;5.30;1.00
6879;DHT22;3478;51.462;7.338;2023-03-04T03:47:08;5.20;1.00
6879;DHT22;3478;51.462;7.338;2023-03-04T03:52:10;5.20;1.00
6879;DHT22;3478;51.462;7.338;2023-03-04T03:57:13;5.20;1.00
6879;DHT22;3478;51.462;7.338;2023-03-04T04:02:15;5.20;1.00
6879;DHT22;3478;51.462;7.338;2023-03-04T04:07:17;5.30;1.00
6879;DHT22;3478;51.462;7.338;2023-03-04T04:12:20;5.30;1.00
6879;DHT22;3478;51.462;7.338;2023-03-04T04:17:22;5.20;1.00
6879;DHT22;3478;51.462;7.338;2023-03-04T04:22:24;5.20;1.00
6879;DHT22;3478;51.462;7.338;2023-03-04T04:27:27;5.20;1.00
6879;DHT22;3478;51.462;7.338;2023-03-04T04:32:29;5.20;1.00
6879;DHT22;3478;51.462;7.338;2023-03-04T04:37:31;5.30;1.00
6879;DHT22;3478;51.462;7.338;2023-03-04T04:42:35;5.30;1.00
6879;DHT22;3478;51.462;7.338;2023-03-04T04:47:37;5.30;1.00
6879;DHT22;3478;51.462;7.338;2023-03-04T04:52:38;5.30;1.00
6879;DHT22;3478;51.462;7.338;2023-03-04T04:57:42;5.30;1.00
6879;DHT22;3478;51.462;7.338;2023-03-04T05:02:44;5.30;1.00
6879;DHT22;3478;51.462;7.338;2023-03-04T05:07:46;5.30;1.00
6879;DHT22;3478;51.462;7.338;2023-03-04T05:12:49;5.20;1.00
6879;DHT22;3478;51.462;7.338;2023-03-04T05:17:50;5.20;1.00
6879;DHT22;3478;51.462;7.338;2023-03-04T05:22:52;5.20;1.00
6879;DHT22;3478;51.462;7.338;2023-03-04T05:27:55;5.20;1.00
6879;DHT22;3478;51.462;7.338;2023-03-04T05:32:57;5.20;1.00
6879;DHT22;3478;51.462;7.338;2023-03-04T05:37:59;5.10;1.00
6879;DHT22;3478;51.462;7.338;2023-03-04T05:43:02;5.10;1.00
6879;DHT22;3478;51.462;7.338;2023-03-04T05:48:05;5.10;1.00
6879;DHT22;3478;51.462;7.338;2023-03-04T05:53:07;5.10;1.00
6879;DHT22;3478;51.462;7.338;2023-03-04T05:58:10;5.20;1.00
6879;DHT22;3478;51.462;7.338;2023-03-04T06:03:14;5.20;1.00
6879;DHT22;3478;51.462;7.338;2023-03-04T06:08:16;5.10;1.00
6879;DHT22;3478;51.462;7.338;2023-03-04T06:13:19;5.20;1.00
6879;DHT22;3478;51.462;7.338;2023-03-04T06:18:23;5.20;1.00
6879;DHT22;3478;51.462;7.338;2023-03-04T06:23:25;5.20;99.90
6879;DHT22;3478;51.462;7.338;2023-03-04T06:28:29;5.10;99.90
6879;DHT22;3478;51.462;7.338;2023-03-04T06:33:31;5.20;99.90
6879;DHT22;3478;51.462;7.338;2023-03-04T06:38:33;5.20;99.90
6879;DHT22;3478;51.462;7.338;2023-03-04T06:43:36;5.20;46.20
6879;DHT22;3478;51.462;7.338;2023-03-04T06:48:38;5.20;1.00
6879;DHT22;3478;51.462;7.338;2023-03-04T06:53:40;5.20;72.50
6879;DHT22;3478;51.462;7.338;2023-03-04T06:58:44;5.20;41.60
6879;DHT22;3478;51.462;7.338;2023-03-04T07:03:48;5.20;99.90
6879;DHT22;3478;51.462;7.338;2023-03-04T07:08:50;5.20;64.40
6879;DHT22;3478;51.462;7.338;2023-03-04T07:13:54;5.30;87.30
6879;DHT22;3478;51.462;7.338;2023-03-04T07:18:56;5.20;91.30
6879;DHT22;3478;51.462;7.338;2023-03-04T07:23:58;5.10;99.90
6879;DHT22;3478;51.462;7.338;2023-03-04T07:29:01;5.10;1.00
6879;DHT22;3478;51.462;7.338;2023-03-04T07:34:04;5.20;99.90
6879;DHT22;3478;51.462;7.338;2023-03-04T07:39:07;5.30;99.90
6879;DHT22;3478;51.462;7.338;2023-03-04T07:44:12;5.10;1.00
6879;DHT22;3478;51.462;7.338;2023-03-04T07:49:14;5.20;1.00
6879;DHT22;3478;51.462;7.338;2023-03-04T07:54:16;5.20;1.00
6879;DHT22;3478;51.462;7.338;2023-03-04T07:59:21;5.20;1.00
6879;DHT22;3478;51.462;7.338;2023-03-04T08:04:22;5.20;99.90
6879;DHT22;3478;51.462;7.338;2023-03-04T08:09:24;5.20;1.00
6879;DHT22;3478;51.462;7.338;2023-03-04T08:14:27;5.30;1.00
6879;DHT22;3478;51.462;7.338;2023-03-04T08:19:29;5.50;99.90
6879;DHT22;3478;51.462;7.338;2023-03-04T08:24:32;5.60;99.90
6879;DHT22;3478;51.462;7.338;2023-03-04T08:29:35;5.70;1.00
6879;DHT22;3478;51.462;7.338;2023-03-04T08:34:38;5.90;1.00
6879;DHT22;3478;51.462;7.338;2023-03-04T08:39:40;6.10;99.90
6879;DHT22;3478;51.462;7.338;2023-03-04T08:44:43;6.20;36.40
6879;DHT22;3478;51.462;7.338;2023-03-04T08:49:45;6.20;15.10
6879;DHT22;3478;51.462;7.338;2023-03-04T08:54:47;6.20;17.70
6879;DHT22;3478;51.462;7.338;2023-03-04T08:59:50;6.60;1.00
6879;DHT22;3478;51.462;7.338;2023-03-04T09:04:52;6.60;1.00
6879;DHT22;3478;51.462;7.338;2023-03-04T09:09:53;6.70;1.00
6879;DHT22;3478;51.462;7.338;2023-03-04T09:14:57;6.40;1.00
6879;DHT22;3478;51.462;7.338;2023-03-04T09:19:59;6.10;1.00
6879;DHT22;3478;51.462;7.338;2023-03-04T09:25:01;6.10;51.10
6879;DHT22;3478;51.462;7.338;2023-03-04T09:30:05;6.20;99.90
6879;DHT22;3478;51.462;7.338;2023-03-04T09:35:07;6.20;99.90
6879;DHT22;3478;51.462;7.338;2023-03-04T09:40:16;6.20;80.00
6879;DHT22;3478;51.462;7.338;2023-03-04T09:45:22;6.20;1.00
6879;DHT22;3478;51.462;7.338;2023-03-04T09:50:26;6.10;1.00
6879;DHT22;3478;51.462;7.338;2023-03-04T09:55:34;6.20;1.00
6879;DHT22;3478;51.462;7.338;2023-03-04T10:00:41;6.50;1.00
6879;DHT22;3478;51.462;7.338;2023-03-04T10:05:50;6.50;1.00
6879;DHT22;3478;51.462;7.338;2023-03-04T10:10:54;6.20;1.00
6879;DHT22;3478;51.462;7.338;2023-03-04T10:16:00;6.30;1.00
6879;DHT22;3478;51.462;7.338;2023-03-04T10:21:07;6.30;99.90
6879;DHT22;3478;51.462;7.338;2023-03-04T10:26:13;6.30;1.00
6879;DHT22;3478;51.462;7.338;2023-03-04T10:31:20;6.30;1.00
6879;DHT22;3478;51.462;7.338;2023-03-04T10:36:35;6.30;1.00
6879;DHT22;3478;51.462;7.338;2023-03-04T10:41:43;6.30;99.90
6879;DHT22;3478;51.462;7.338;2023-03-04T10:46:47;6.40;99.90
6879;DHT22;3478;51.462;7.338;2023-03-04T10:51:51;6.30;99.90
6879;DHT22;3478;51.462;7.338;2023-03-04T10:56:59;6.30;99.90
6879;DHT22;3478;51.462;7.338;2023-03-04T11:02:15;6.30;99.90
6879;DHT22;3478;51.462;7.338;2023-03-04T11:07:17;6.30;99.90
6879;DHT22;3478;51.462;7.338;2023-03-04T11:12:21;6.20;99.90
6879;DHT22;3478;51.462;7.338;2023-03-04T11:17:43;6.00;99.90
6879;DHT22;3478;51.462;7.338;2023-03-04T11:22:46;6.00;99.90
6879;DHT22;3478;51.462;7.338;2023-03-04T11:27:51;6.00;99.90
6879;DHT22;3478;51.462;7.338;2023-03-04T11:33:02;6.00;99.90
6879;DHT22;3478;51.462;7.338;2023-03-04T11:38:14;6.10;99.90
6879;DHT22;3478;51.462;7.338;2023-03-04T11:43:21;6.50;99.90
6879;DHT22;3478;51.462;7.338;2023-03-04T11:48:36;6.80;99.90
6879;DHT22;3478;51.462;7.338;2023-03-04T11:53:50;7.20;99.90
6879;DHT22;3478;51.462;7.338;2023-03-04T11:59:23;7.00;99.90
6879;DHT22;3478;51.462;7.338;2023-03-04T12:04:44;6.70;1.00
6879;DHT22;3478;51.462;7.338;2023-03-04T12:10:00;6.90;1.00
6879;DHT22;3478;51.462;7.338;2023-03-04T12:15:13;7.10;1.00
6879;DHT22;3478;51.462;7.338;2023-03-04T12:20:29;7.10;1.00
6879;DHT22;3478;51.462;7.338;2023-03-04T12:25:39;7.20;99.90
6879;DHT22;3478;51.462;7.338;2023-03-04T12:30:51;7.20;1.00
6879;DHT22;3478;51.462;7.338;2023-03-04T12:36:04;7.20;1.00
6879;DHT22;3478;51.462;7.338;2023-03-04T12:41:20;6.90;1.00
6879;DHT22;3478;51.462;7.338;2023-03-04T12:46:30;6.90;35.90
6879;DHT22;3478;51.462;7.338;2023-03-04T12:51:42;6.70;1.00
6879;DHT22;3478;51.462;7.338;2023-03-04T12:56:51;6.70;1.00
6879;DHT22;3478;51.462;7.338;2023-03-04T13:02:01;6.70;1.00
6879;DHT22;3478;51.462;7.338;2023-03-04T13:07:15;6.50;1.00
6879;DHT22;3478;51.462;7.338;2023-03-04T13:12:23;6.40;1.00
6879;DHT22;3478;51.462;7.338;2023-03-04T13:17:37;6.40;1.00
6879;DHT22;3478;51.462;7.338;2023-03-04T13:22:52;6.50;1.00
6879;DHT22;3478;51.462;7.338;2023-03-04T13:28:11;6.70;1.00
6879;DHT22;3478;51.462;7.338;2023-03-04T13:33:47;6.80;99.90
6879;DHT22;3478;51.462;7.338;2023-03-04T13:38:59;7.10;13.60
6879;DHT22;3478;51.462;7.338;2023-03-04T13:44:02;7.10;1.00
6879;DHT22;3478;51.462;7.338;2023-03-04T13:49:14;7.10;1.00
6879;DHT22;3478;51.462;7.338;2023-03-04T13:54:23;6.90;99.90
6879;DHT22;3478;51.462;7.338;2023-03-04T13:59:29;6.90;1.00
6879;DHT22;3478;51.462;7.338;2023-03-04T14:04:34;7.00;1.00
6879;DHT22;3478;51.462;7.338;2023-03-04T14:09:37;7.10;1.00
6879;DHT22;3478;51.462;7.338;2023-03-04T14:14:43;7.20;1.00
6879;DHT22;3478;51.462;7.338;2023-03-04T14:19:48;7.40;1.00
6879;DHT22;3478;51.462;7.338;2023-03-04T14:25:00;7.40;1.00
6879;DHT22;3478;51.462;7.338;2023-03-04T14:30:04;7.30;99.90
6879;DHT22;3478;51.462;7.338;2023-03-04T14:35:18;7.00;1.00
6879;DHT22;3478;51.462;7.338;2023-03-04T14:40:24;7.00;99.90
6879;DHT22;3478;51.462;7.338;2023-03-04T14:45:27;7.00;18.00
6879;DHT22;3478;51.462;7.338;2023-03-04T14:50:29;7.20;99.90
6879;DHT22;3478;51.462;7.338;2023-03-04T14:55:33;7.40;1.00
6879;DHT22;3478;51.462;7.338;2023-03-04T15:00:36;7.40;46.10
6879;DHT22;3478;51.462;7.338;2023-03-04T15:05:38;7.40;1.00
6879;DHT22;3478;51.462;7.338;2023-03-04T15:10:42;7.30;1.00
6879;DHT22;3478;51.462;7.338;2023-03-04T15:15:45;7.30;1.00
6879;DHT22;3478;51.462;7.338;2023-03-04T15:20:53;7.30;99.90
6879;DHT22;3478;51.462;7.338;2023-03-04T15:25:58;7.40;99.90
6879;DHT22;3478;51.462;7.338;2023-03-04T15:31:01;7.40;99.90
6879;DHT22;3478;51.462;7.338;2023-03-04T15:36:03;7.30;99.90
6879;DHT22;3478;51.462;7.338;2023-03-04T15:41:08;7.30;1.00
6879;DHT22;3478;51.462;7.338;2023-03-04T15:46:11;7.40;1.00
6879;DHT22;3478;51.462;7.338;2023-03-04T15:51:15;7.40;1.00
6879;DHT22;3478;51.462;7.338;2023-03-04T15:56:20;7.50;99.90
6879;DHT22;3478;51.462;7.338;2023-03-04T16:01:24;7.40;99.90
6879;DHT22;3478;51.462;7.338;2023-03-04T16:06:28;7.50;99.90
6879;DHT22;3478;51.462;7.338;2023-03-04T16:11:35;7.60;1.00
6879;DHT22;3478;51.462;7.338;2023-03-04T16:16:41;7.50;1.00
6879;DHT22;3478;51.462;7.338;2023-03-04T16:21:43;7.50;1.00
6879;DHT22;3478;51.462;7.338;2023-03-04T16:26:47;7.30;1.00
6879;DHT22;3478;51.462;7.338;2023-03-04T16:31:49;7.20;1.00
6879;DHT22;3478;51.462;7.338;2023-03-04T16:36:51;7.00;1.00
6879;DHT22;3478;51.462;7.338;2023-03-04T16:41:54;7.00;1.00
6879;DHT22;3478;51.462;7.338;2023-03-04T16:46:56;7.00;1.00
6879;DHT22;3478;51.462;7.338;2023-03-04T16:51:58;7.00;1.00
6879;DHT22;3478;51.462;7.338;2023-03-04T16:57:01;6.90;1.00
6879;DHT22;3478;51.462;7.338;2023-03-04T17:02:05;6.90;1.00
6879;DHT22;3478;51.462;7.338;2023-03-04T17:07:07;7.00;1.00
6879;DHT22;3478;51.462;7.338;2023-03-04T17:12:11;6.90;1.00
6879;DHT22;3478;51.462;7.338;2023-03-04T17:17:13;6.90;1.00
6879;DHT22;3478;51.462;7.338;2023-03-04T17:22:15;6.90;1.00
6879;DHT22;3478;51.462;7.338;2023-03-04T17:27:18;6.90;1.00
6879;DHT22;3478;51.462;7.338;2023-03-04T17:32:20;6.80;1.00
6879;DHT22;3478;51.462;7.338;2023-03-04T17:37:22;6.80;1.00
6879;DHT22;3478;51.462;7.338;2023-03-04T17:42:26;6.80;1.00
6879;DHT22;3478;51.462;7.338;2023-03-04T17:47:27;6.70;1.00
6879;DHT22;3478;51.462;7.338;2023-03-04T17:52:29;6.70;1.00
6879;DHT22;3478;51.462;7.338;2023-03-04T17:57:34;6.70;1.00
6879;DHT22;3478;51.462;7.338;2023-03-04T18:02:36;6.60;1.00
6879;DHT22;3478;51.462;7.338;2023-03-04T18:07:38;6.60;1.00
6879;DHT22;3478;51.462;7.338;2023-03-04T18:12:41;6.60;1.00
6879;DHT22;3478;51.462;7.338;2023-03-04T18:17:43;6.50;1.00
6879;DHT22;3478;51.462;7.338;2023-03-04T18:22:47;6.40;1.00
6879;DHT22;3478;51.462;7.338;2023-03-04T18:27:50;6.40;1.00
6879;DHT22;3478;51.462;7.338;2023-03-04T18:32:52;6.40;1.00
6879;DHT22;3478;51.462;7.338;2023-03-04T18:37:54;6.30;1.00
6879;DHT22;3478;51.462;7.338;2023-03-04T18:42:57;6.30;99.90
6879;DHT22;3478;51.462;7.338;2023-03-04T18:47:59;6.30;99.90
6879;DHT22;3478;51.462;7.338;2023-03-04T18:53:01;6.30;99.90
6879;DHT22;3478;51.462;7.338;2023-03-04T18:58:04;6.30;99.90
6879;DHT22;3478;51.462;7.338;2023-03-04T19:03:09;6.30;99.90
6879;DHT22;3478;51.462;7.338;2023-03-04T19:08:12;6.20;99.90
6879;DHT22;3478;51.462;7.338;2023-03-04T19:13:15;6.20;1.00
6879;DHT22;3478;51.462;7.338;2023-03-04T19:18:18;6.20;1.00
6879;DHT22;3478;51.462;7.338;2023-03-04T19:23:20;6.10;1.00
6879;DHT22;3478;51.462;7.338;2023-03-04T19:28:23;6.10;1.00
6879;DHT22;3478;51.462;7.338;2023-03-04T19:33:25;6.10;1.00
6879;DHT22;3478;51.462;7.338;2023-03-04T19:38:27;6.10;1.00
6879;DHT22;3478;51.462;7.338;2023-03-04T19:43:30;6.00;1.00
6879;DHT22;3478;51.462;7.338;2023-03-04T19:48:37;6.10;1.00
6879;DHT22;3478;51.462;7.338;2023-03-04T19:53:39;6.10;1.00
6879;DHT22;3478;51.462;7.338;2023-03-04T19:58:43;6.10;1.00
6879;DHT22;3478;51.462;7.338;2023-03-04T20:03:46;6.20;1.00
6879;DHT22;3478;51.462;7.338;2023-03-04T20:08:48;6.20;1.00
6879;DHT22;3478;51.462;7.338;2023-03-04T20:13:51;6.10;1.00
6879;DHT22;3478;51.462;7.338;2023-03-04T20:18:54;6.00;1.00
6879;DHT22;3478;51.462;7.338;2023-03-04T20:23:57;6.00;1.00
6879;DHT22;3478;51.462;7.338;2023-03-04T20:29:01;6.00;1.00
6879;DHT22;3478;51.462;7.338;2023-03-04T20:34:04;6.00;1.00
6879;DHT22;3478;51.462;7.338;2023-03-04T20:39:07;6.00;1.00
6879;DHT22;3478;51.462;7.338;2023-03-04T20:44:11;5.90;1.00
6879;DHT22;3478;51.462;7.338;2023-03-04T20:49:15;5.90;1.00
6879;DHT22;3478;51.462;7.338;2023-03-04T20:54:19;5.70;1.00
6879;DHT22;3478;51.462;7.338;2023-03-04T20:59:22;5.70;1.00
6879;DHT22;3478;51.462;7.338;2023-03-04T21:04:24;5.60;1.00
6879;DHT22;3478;51.462;7.338;2023-03-04T21:09:27;5.60;1.00
6879;DHT22;3478;51.462;7.338;2023-03-04T21:14:31;5.70;1.00
6879;DHT22;3478;51.462;7.338;2023-03-04T21:19:36;5.70;1.00
6879;DHT22;3478;51.462;7.338;2023-03-04T21:24:39;5.70;1.00
6879;DHT22;3478;51.462;7.338;2023-03-04T21:29:43;5.70;1.00
6879;DHT22;3478;51.462;7.338;2023-03-04T21:34:46;5.60;1.00
6879;DHT22;3478;51.462;7.338;2023-03-04T21:39:51;5.60;1.00
6879;DHT22;3478;51.462;7.338;2023-03-04T21:44:54;5.50;1.00
6879;DHT22;3478;51.462;7.338;2023-03-04T21:49:56;5.40;1.00
6879;DHT22;3478;51.462;7.338;2023-03-04T21:54:58;5.40;1.00
6879;DHT22;3478;51.462;7.338;2023-03-04T22:00:01;5.50;1.00
6879;DHT22;3478;51.462;7.338;2023-03-04T22:05:03;5.40;1.00
6879;DHT22;3478;51.462;7.338;2023-03-04T22:10:06;5.30;1.00
6879;DHT22;3478;51.462;7.338;2023-03-04T22:15:10;5.40;1.00
6879;DHT22;3478;51.462;7.338;2023-03-04T22:20:12;5.40;1.00
6879;DHT22;3478;51.462;7.338;2023-03-04T22:25:15;5.50;1.00
6879;DHT22;3478;51.462;7.338;2023-03-04T22:30:19;5.40;1.00
6879;DHT22;3478;51.462;7.338;2023-03-04T22:35:20;5.40;1.00
6879;DHT22;3478;51.462;7.338;2023-03-04T22:40:22;5.40;1.00
6879;DHT22;3478;51.462;7.338;2023-03-04T22:45:25;5.40;1.00
6879;DHT22;3478;51.462;7.338;2023-03-04T22:50:33;5.30;1.00
6879;DHT22;3478;51.462;7.338;2023-03-04T22:55:35;5.30;1.00
6879;DHT22;3478;51.462;7.338;2023-03-04T23:00:38;5.20;1.00
6879;DHT22;3478;51.462;7.338;2023-03-04T23:05:40;5.30;1.00
6879;DHT22;3478;51.462;7.338;2023-03-04T23:10:42;5.20;1.00
6879;DHT22;3478;51.462;7.338;2023-03-04T23:15:45;5.20;1.00
6879;DHT22;3478;51.462;7.338;2023-03-04T23:20:47;5.20;1.00
6879;DHT22;3478;51.462;7.338;2023-03-04T23:25:49;5.30;1.00
6879;DHT22;3478;51.462;7.338;2023-03-04T23:30:52;5.30;1.00
6879;DHT22;3478;51.462;7.338;2023-03-04T23:35:54;5.30;1.00
6879;DHT22;3478;51.462;7.338;2023-03-04T23:40:56;5.20;1.00
6879;DHT22;3478;51.462;7.338;2023-03-04T23:45:59;5.30;1.00
6879;DHT22;3478;51.462;7.338;2023-03-04T23:51:01;5.30;1.00
6879;DHT22;3478;51.462;7.338;2023-03-04T23:56:06;5.30;1.00
